Time;durP1;ratioP1;P1;durP2;ratioP2;P2;SDS_P1;SDS_P2;PMS_P1;PMS_P2;Temp;Humidity;BMP_temperature;BMP_pressure;BME280_temperature;BME280_humidity;BME280_pressure;Samples;Min_cycle;Max_cycle;Signal;HPM_P1;HPM_P2
2022/09/19 00:00:54;;;;;;;1.67;1.17;;;;;;;;;;5008285;28;20125;-57
2022/09/19 00:03:20;;;;;;;1.85;0.90;;;;;;;;;;5008886;28;20116;-58
2022/09/19 00:05:46;;;;;;;1.88;1.08;;;;;;;;;;5006320;28;20079;-58
2022/09/19 00:08:12;;;;;;;1.75;1.00;;;;;;;;;;5006198;28;20050;-57
2022/09/19 00:10:42;;;;;;;2.50;1.00;;;;;;;;;;5012104;28;20454;-57
2022/09/19 00:13:08;;;;;;;2.47;1.02;;;;;;;;;;5026144;28;20038;-57
2022/09/19 00:15:36;;;;;;;0.95;0.68;;;;;;;;;;5020539;28;20061;-57
2022/09/19 00:18:03;;;;;;;1.70;1.10;;;;;;;;;;5008117;28;20040;-58
2022/09/19 00:20:30;;;;;;;1.85;0.90;;;;;;;;;;5010057;28;20529;-57
2022/09/19 00:25:40;;;;;;;1.65;0.98;;;;;;;;;;5028734;28;20049;-56
2022/09/19 00:28:06;;;;;;;1.42;0.90;;;;;;;;;;5026207;28;20038;-56
2022/09/19 00:30:37;;;;;;;1.77;0.98;;;;;;;;;;5021777;28;20048;-56
2022/09/19 00:33:03;;;;;;;4.15;1.05;;;;;;;;;;5007092;28;20045;-56
2022/09/19 00:35:31;;;;;;;1.92;0.95;;;;;;;;;;5005361;28;20037;-56
2022/09/19 00:37:57;;;;;;;4.70;1.25;;;;;;;;;;5007250;28;20038;-57
2022/09/19 00:40:22;;;;;;;3.13;0.95;;;;;;;;;;5008503;28;20083;-56
2022/09/19 00:42:48;;;;;;;2.13;1.00;;;;;;;;;;5006796;28;20046;-55
2022/09/19 00:45:16;;;;;;;1.75;1.15;;;;;;;;;;5008845;28;20499;-55
2022/09/19 00:47:47;;;;;;;2.75;1.20;;;;;;;;;;5026186;28;20053;-56
2022/09/19 00:50:19;;;;;;;2.42;1.20;;;;;;;;;;5026447;28;20025;-56
2022/09/19 00:52:52;;;;;;;2.88;1.10;;;;;;;;;;5008324;28;20121;-54
2022/09/19 00:55:18;;;;;;;2.05;1.23;;;;;;;;;;5005608;28;20022;-56
2022/09/19 00:58:05;;;;;;;1.50;1.25;;;;;;;;;;5015421;28;20916;-56
2022/09/19 01:00:34;;;;;;;1.45;1.00;;;;;;;;;;5007210;28;20089;-56
2022/09/19 01:03:01;;;;;;;1.80;1.00;;;;;;;;;;5015196;28;20061;-56
2022/09/19 01:05:41;;;;;;;2.25;1.20;;;;;;;;;;5015813;28;20048;-56
2022/09/19 01:08:33;;;;;;;1.17;1.02;;;;;;;;;;5029226;28;20108;-58
2022/09/19 01:11:10;;;;;;;5.55;0.90;;;;;;;;;;5010370;28;20034;-56
2022/09/19 01:13:52;;;;;;;1.20;1.10;;;;;;;;;;5015858;28;20033;-58
2022/09/19 01:16:33;;;;;;;2.17;1.00;;;;;;;;;;5021371;28;20495;-58
2022/09/19 01:19:24;;;;;;;0.95;0.90;;;;;;;;;;5025763;28;20076;-56
2022/09/19 01:22:02;;;;;;;4.25;1.20;;;;;;;;;;5007781;28;20574;-55
2022/09/19 01:24:40;;;;;;;1.75;1.20;;;;;;;;;;5004283;28;20038;-57
2022/09/19 01:27:51;;;;;;;2.38;1.02;;;;;;;;;;5018636;28;20048;-57
2022/09/19 01:30:17;;;;;;;1.38;0.98;;;;;;;;;;5023717;28;20120;-58
2022/09/19 01:32:51;;;;;;;1.85;1.10;;;;;;;;;;5004888;28;20109;-57
2022/09/19 01:35:24;;;;;;;2.03;1.20;;;;;;;;;;5006299;28;20022;-57
2022/09/19 01:37:56;;;;;;;2.28;1.10;;;;;;;;;;5003844;28;20021;-56
2022/09/19 01:40:23;;;;;;;2.60;1.45;;;;;;;;;;5005841;28;20394;-57
2022/09/19 01:42:58;;;;;;;4.93;1.00;;;;;;;;;;5004782;28;20030;-56
2022/09/19 01:45:31;;;;;;;5.07;1.15;;;;;;;;;;5005345;28;20498;-57
2022/09/19 01:48:00;;;;;;;3.83;1.70;;;;;;;;;;5005326;28;20038;-58
2022/09/19 01:50:38;;;;;;;2.50;1.27;;;;;;;;;;5004093;28;20033;-53
2022/09/19 01:53:24;;;;;;;2.25;1.20;;;;;;;;;;5002962;28;20018;-57
2022/09/19 01:56:07;;;;;;;1.33;0.80;;;;;;;;;;4956346;28;20581;-57
2022/09/19 01:59:16;;;;;;;1.35;1.08;;;;;;;;;;4985511;28;20566;-57
2022/09/19 02:02:00;;;;;;;1.10;1.00;;;;;;;;;;4945082;28;20079;-54
2022/09/19 02:04:45;;;;;;;1.10;1.00;;;;;;;;;;4947459;28;20079;-58
2022/09/19 02:07:29;;;;;;;1.60;1.15;;;;;;;;;;4946714;28;20066;-56
2022/09/19 02:10:05;;;;;;;2.75;1.20;;;;;;;;;;4945049;29;20090;-54
2022/09/19 02:12:34;;;;;;;1.55;1.35;;;;;;;;;;4943711;28;20047;-58
2022/09/19 02:15:03;;;;;;;2.58;1.20;;;;;;;;;;4946070;29;20035;-56
2022/09/19 02:17:44;;;;;;;3.08;1.40;;;;;;;;;;4946512;28;20051;-56
2022/09/19 02:20:24;;;;;;;2.13;1.45;;;;;;;;;;4947691;28;20090;-58
2022/09/19 02:22:57;;;;;;;3.30;1.20;;;;;;;;;;4948279;29;20039;-56
2022/09/19 02:25:30;;;;;;;1.70;1.00;;;;;;;;;;4945199;28;20058;-57
2022/09/19 02:28:03;;;;;;;1.95;1.48;;;;;;;;;;4947983;28;20043;-57
2022/09/19 02:30:29;;;;;;;1.27;1.20;;;;;;;;;;4942907;28;20043;-58
2022/09/19 02:32:54;;;;;;;3.65;1.50;;;;;;;;;;4972058;28;20491;-58
2022/09/19 02:35:50;;;;;;;1.20;1.08;;;;;;;;;;5005656;28;20057;-57
2022/09/19 02:38:33;;;;;;;3.53;1.00;;;;;;;;;;4929144;29;20076;-57
2022/09/19 02:41:04;;;;;;;3.13;1.45;;;;;;;;;;4927861;28;20132;-56
2022/09/19 02:43:47;;;;;;;3.47;1.30;;;;;;;;;;4926895;29;20039;-55
2022/09/19 02:46:18;;;;;;;5.07;2.25;;;;;;;;;;4925541;29;20564;-56
2022/09/19 02:48:57;;;;;;;1.85;1.17;;;;;;;;;;4921588;29;20048;-58
2022/09/19 02:51:30;;;;;;;1.20;1.10;;;;;;;;;;4924919;29;20052;-58
2022/09/19 02:54:06;;;;;;;1.40;1.30;;;;;;;;;;4931216;29;20035;-56
2022/09/19 02:56:34;;;;;;;3.65;1.50;;;;;;;;;;4926045;29;20046;-56
2022/09/19 02:59:12;;;;;;;1.10;1.00;;;;;;;;;;4930766;29;22690;-57
2022/09/19 03:01:43;;;;;;;1.23;1.08;;;;;;;;;;4928596;29;20047;-56
2022/09/19 03:04:14;;;;;;;1.48;1.23;;;;;;;;;;4929105;29;20035;-56
2022/09/19 03:07:11;;;;;;;4.83;1.17;;;;;;;;;;4931716;29;20497;-57
2022/09/19 03:09:40;;;;;;;2.15;1.08;;;;;;;;;;4927684;29;20044;-56
2022/09/19 03:12:14;;;;;;;1.83;1.00;;;;;;;;;;4928914;29;20646;-56
2022/09/19 03:14:40;;;;;;;1.00;0.90;;;;;;;;;;4951260;28;20049;-57
2022/09/19 03:17:06;;;;;;;2.90;1.25;;;;;;;;;;5028712;28;20033;-57
2022/09/19 03:19:32;;;;;;;1.58;0.93;;;;;;;;;;5027397;28;20467;-57
2022/09/19 03:21:58;;;;;;;0.90;0.75;;;;;;;;;;5009592;28;20045;-58
2022/09/19 03:24:26;;;;;;;6.07;0.90;;;;;;;;;;5008582;28;20037;-57
2022/09/19 03:26:51;;;;;;;2.50;0.95;;;;;;;;;;5009664;28;20125;-57
2022/09/19 03:29:18;;;;;;;1.13;1.00;;;;;;;;;;5008023;28;20482;-58
2022/09/19 03:31:45;;;;;;;1.02;0.90;;;;;;;;;;5007345;28;20034;-56
2022/09/19 03:34:12;;;;;;;1.73;0.98;;;;;;;;;;5007978;28;20037;-57
2022/09/19 03:36:40;;;;;;;5.28;1.00;;;;;;;;;;5007820;28;20045;-55
2022/09/19 03:39:06;;;;;;;2.08;0.90;;;;;;;;;;5008522;28;20026;-57
2022/09/19 03:41:32;;;;;;;3.22;1.05;;;;;;;;;;5008137;28;20457;-56
2022/09/19 03:44:01;;;;;;;0.68;0.63;;;;;;;;;;5008695;28;20132;-58
2022/09/19 03:46:30;;;;;;;1.27;0.95;;;;;;;;;;5016925;28;20029;-56
2022/09/19 03:48:56;;;;;;;1.45;1.13;;;;;;;;;;5024777;28;20064;-57
2022/09/19 03:51:23;;;;;;;1.92;0.85;;;;;;;;;;5015747;28;20037;-57
2022/09/19 03:53:48;;;;;;;1.58;0.80;;;;;;;;;;5006981;28;20034;-57
2022/09/19 03:56:15;;;;;;;0.77;0.77;;;;;;;;;;5006701;28;20073;-58
2022/09/19 03:58:42;;;;;;;1.25;0.90;;;;;;;;;;5008258;28;20407;-57
2022/09/19 04:01:08;;;;;;;1.38;0.90;;;;;;;;;;5008063;28;20046;-57
2022/09/19 04:03:35;;;;;;;0.95;0.80;;;;;;;;;;5008204;28;20122;-58
2022/09/19 04:06:01;;;;;;;1.25;0.90;;;;;;;;;;5003898;28;20042;-57
2022/09/19 04:08:27;;;;;;;2.15;0.93;;;;;;;;;;5004746;28;20029;-57
2022/09/19 04:10:53;;;;;;;2.83;2.25;;;;;;;;;;5009904;28;20049;-56
2022/09/19 04:13:21;;;;;;;0.68;0.50;;;;;;;;;;5025698;28;20025;-57
2022/09/19 04:15:48;;;;;;;1.65;1.00;;;;;;;;;;5028062;28;20037;-57
2022/09/19 04:18:14;;;;;;;1.45;1.00;;;;;;;;;;5025066;28;20442;-53
2022/09/19 04:20:40;;;;;;;1.27;0.93;;;;;;;;;;5024636;28;20116;-57
2022/09/19 04:23:05;;;;;;;2.80;0.85;;;;;;;;;;5025974;28;20425;-57
2022/09/19 04:25:35;;;;;;;1.90;0.95;;;;;;;;;;5020757;28;20724;-56
2022/09/19 04:28:07;;;;;;;0.80;0.80;;;;;;;;;;5006968;28;20465;-57
2022/09/19 04:30:35;;;;;;;1.77;0.68;;;;;;;;;;5009703;28;20029;-57
2022/09/19 04:33:03;;;;;;;1.58;0.95;;;;;;;;;;5022426;28;20033;-57
2022/09/19 04:35:30;;;;;;;2.78;1.10;;;;;;;;;;5022176;28;20381;-57
2022/09/19 04:37:55;;;;;;;1.27;0.85;;;;;;;;;;5005358;28;20386;-57
2022/09/19 04:40:21;;;;;;;1.58;0.93;;;;;;;;;;5008769;28;20101;-58
2022/09/19 04:42:47;;;;;;;1.42;0.80;;;;;;;;;;5026315;28;20040;-58
2022/09/19 04:45:20;;;;;;;2.10;0.90;;;;;;;;;;5026744;28;20056;-57
2022/09/19 04:47:47;;;;;;;0.80;0.80;;;;;;;;;;5025139;28;20029;-58
2022/09/19 04:50:14;;;;;;;1.95;1.00;;;;;;;;;;5024712;28;20036;-57
2022/09/19 04:52:39;;;;;;;0.95;0.85;;;;;;;;;;5006918;28;20037;-57
2022/09/19 04:55:06;;;;;;;5.43;0.98;;;;;;;;;;5006339;28;20029;-57
2022/09/19 04:57:32;;;;;;;0.70;0.60;;;;;;;;;;5006176;28;20131;-56
2022/09/19 04:59:58;;;;;;;1.77;0.93;;;;;;;;;;5006304;28;20494;-57
2022/09/19 05:02:23;;;;;;;2.45;1.00;;;;;;;;;;5006644;28;20081;-58
2022/09/19 05:04:49;;;;;;;5.43;0.90;;;;;;;;;;5007134;28;20042;-55
2022/09/19 05:07:14;;;;;;;2.00;0.93;;;;;;;;;;5002142;28;20069;-55
2022/09/19 05:09:44;;;;;;;1.65;0.85;;;;;;;;;;5001718;28;20041;-55
2022/09/19 05:12:10;;;;;;;3.13;1.02;;;;;;;;;;5012842;28;20121;-57
2022/09/19 05:14:36;;;;;;;4.85;1.00;;;;;;;;;;5023090;28;20092;-57
2022/09/19 05:17:02;;;;;;;3.53;1.08;;;;;;;;;;5003955;28;20030;-58
2022/09/19 05:19:27;;;;;;;1.90;0.80;;;;;;;;;;5013124;28;20105;-56
2022/09/19 05:21:54;;;;;;;0.73;0.73;;;;;;;;;;5012197;28;20128;-56
2022/09/19 05:24:19;;;;;;;3.08;1.05;;;;;;;;;;5015114;28;20486;-56
2022/09/19 05:26:46;;;;;;;6.18;0.70;;;;;;;;;;5005414;28;20046;-55
2022/09/19 05:29:13;;;;;;;1.13;0.82;;;;;;;;;;4998855;28;20030;-54
2022/09/19 05:31:40;;;;;;;4.25;0.90;;;;;;;;;;4999528;28;20046;-55
2022/09/19 05:34:05;;;;;;;0.68;0.60;;;;;;;;;;4996853;28;20883;-57
2022/09/19 05:36:31;;;;;;;1.30;0.95;;;;;;;;;;5010045;28;20064;-56
2022/09/19 05:38:57;;;;;;;1.15;0.82;;;;;;;;;;5024916;28;20061;-57
2022/09/19 05:41:23;;;;;;;4.20;0.90;;;;;;;;;;5023210;28;20044;-56
2022/09/19 05:43:50;;;;;;;2.88;0.88;;;;;;;;;;5023555;28;20108;-57
2022/09/19 05:46:15;;;;;;;2.83;1.20;;;;;;;;;;5010025;28;20042;-57
2022/09/19 05:48:41;;;;;;;2.72;0.85;;;;;;;;;;5003121;28;20030;-57
2022/09/19 05:51:07;;;;;;;1.55;0.93;;;;;;;;;;5004229;28;20077;-57
2022/09/19 05:56:17;;;;;;;1.95;1.20;;;;;;;;;;5013824;28;20034;-58
2022/09/19 05:58:43;;;;;;;4.80;1.02;;;;;;;;;;5023010;28;20064;-57
2022/09/19 06:01:10;;;;;;;3.33;1.48;;;;;;;;;;5022945;28;20053;-56
2022/09/19 06:03:38;;;;;;;1.30;0.70;;;;;;;;;;5017595;28;20039;-55
2022/09/19 06:06:13;;;;;;;1.85;1.00;;;;;;;;;;5022921;28;20458;-57
2022/09/19 06:08:41;;;;;;;4.13;0.80;;;;;;;;;;5024800;28;20041;-58
2022/09/19 06:11:07;;;;;;;0.70;0.70;;;;;;;;;;5014016;28;20038;-57
2022/09/19 06:16:18;;;;;;;1.55;0.90;;;;;;;;;;5003028;28;20064;-56
2022/09/19 06:18:44;;;;;;;2.65;1.15;;;;;;;;;;5004497;28;20495;-58
2022/09/19 06:21:10;;;;;;;3.63;0.85;;;;;;;;;;5003970;28;20565;-58
2022/09/19 06:23:35;;;;;;;1.30;0.90;;;;;;;;;;5002593;28;20073;-58
2022/09/19 06:26:01;;;;;;;1.75;0.80;;;;;;;;;;5013238;28;20104;-57
2022/09/19 06:28:26;;;;;;;1.63;1.23;;;;;;;;;;5030054;28;20033;-58
2022/09/19 06:30:53;;;;;;;4.20;1.27;;;;;;;;;;5020745;28;20042;-55
2022/09/19 06:33:18;;;;;;;2.30;1.38;;;;;;;;;;5007234;28;20034;-57
2022/09/19 06:35:44;;;;;;;2.17;1.00;;;;;;;;;;5013852;28;20473;-57
2022/09/19 06:38:10;;;;;;;4.85;1.20;;;;;;;;;;5028862;28;20378;-58
2022/09/19 06:40:38;;;;;;;4.80;0.82;;;;;;;;;;5027422;28;20183;-56
2022/09/19 06:43:05;;;;;;;5.07;0.60;;;;;;;;;;5027888;28;20540;-58
2022/09/19 06:45:37;;;;;;;2.38;0.85;;;;;;;;;;5019915;28;20111;-55
2022/09/19 06:48:03;;;;;;;1.35;0.80;;;;;;;;;;5009193;28;20053;-57
2022/09/19 06:50:30;;;;;;;3.13;0.80;;;;;;;;;;5008703;28;20048;-55
2022/09/19 06:52:55;;;;;;;1.15;0.70;;;;;;;;;;5008834;28;20037;-57
2022/09/19 06:55:25;;;;;;;5.35;0.90;;;;;;;;;;5008418;28;20025;-57
2022/09/19 06:57:56;;;;;;;1.42;0.82;;;;;;;;;;5026561;28;20021;-57
2022/09/19 07:00:24;;;;;;;3.40;1.00;;;;;;;;;;5021004;28;20052;-57
2022/09/19 07:02:59;;;;;;;1.63;1.00;;;;;;;;;;5007639;28;20065;-59
2022/09/19 07:05:26;;;;;;;2.85;1.27;;;;;;;;;;5007170;28;20084;-58
2022/09/19 07:07:52;;;;;;;2.80;0.93;;;;;;;;;;5007529;28;20545;-58
2022/09/19 07:10:22;;;;;;;4.22;0.95;;;;;;;;;;5006830;28;20030;-58
2022/09/19 07:13:01;;;;;;;3.65;0.80;;;;;;;;;;5006840;28;20093;-59
2022/09/19 07:15:37;;;;;;;7.25;0.90;;;;;;;;;;5011203;28;20100;-58
2022/09/19 07:18:08;;;;;;;2.15;0.93;;;;;;;;;;5028933;28;20025;-59
2022/09/19 07:20:36;;;;;;;2.78;0.90;;;;;;;;;;5025208;28;20057;-59
2022/09/19 07:23:04;;;;;;;3.80;1.08;;;;;;;;;;5027817;28;23331;-58
2022/09/19 07:25:31;;;;;;;3.75;0.98;;;;;;;;;;5025459;28;20075;-59
2022/09/19 07:27:59;;;;;;;2.10;0.95;;;;;;;;;;5006203;28;20085;-59
2022/09/19 07:30:25;;;;;;;1.80;0.90;;;;;;;;;;5004222;28;20410;-58
2022/09/19 07:32:57;;;;;;;1.05;0.80;;;;;;;;;;5005710;28;20463;-59
2022/09/19 07:35:27;;;;;;;3.65;0.80;;;;;;;;;;5008761;28;20030;-59
2022/09/19 07:37:54;;;;;;;0.80;0.73;;;;;;;;;;5028822;28;20379;-59
2022/09/19 07:40:20;;;;;;;3.78;0.90;;;;;;;;;;5021767;28;20075;-57
2022/09/19 07:42:46;;;;;;;2.42;0.73;;;;;;;;;;5007541;28;20062;-59
2022/09/19 07:45:12;;;;;;;2.08;1.10;;;;;;;;;;5005093;28;20049;-58
2022/09/19 07:47:47;;;;;;;4.47;0.95;;;;;;;;;;5006151;28;20053;-59
2022/09/19 07:50:16;;;;;;;1.63;0.68;;;;;;;;;;5005438;28;20041;-58
2022/09/19 07:52:46;;;;;;;1.73;0.95;;;;;;;;;;5007926;28;20034;-59
2022/09/19 07:55:15;;;;;;;5.25;1.00;;;;;;;;;;5004896;28;20140;-57
2022/09/19 07:57:51;;;;;;;2.13;0.88;;;;;;;;;;5025069;28;20029;-59
2022/09/19 08:00:17;;;;;;;2.63;1.10;;;;;;;;;;5025177;28;20168;-59
2022/09/19 08:02:43;;;;;;;5.57;0.90;;;;;;;;;;5023379;28;20034;-58
2022/09/19 08:05:09;;;;;;;2.45;1.05;;;;;;;;;;5024160;28;20039;-58
2022/09/19 08:07:35;;;;;;;4.10;1.20;;;;;;;;;;5004644;28;20032;-59
2022/09/19 08:10:02;;;;;;;1.05;0.73;;;;;;;;;;5008375;28;20390;-58
2022/09/19 08:12:30;;;;;;;3.60;0.75;;;;;;;;;;5024278;28;21305;-59
2022/09/19 08:14:56;;;;;;;13.88;1.20;;;;;;;;;;5027844;28;20073;-59
2022/09/19 08:17:21;;;;;;;9.27;1.20;;;;;;;;;;5008792;28;20053;-58
2022/09/19 08:19:47;;;;;;;2.03;1.45;;;;;;;;;;5004999;28;20030;-59
2022/09/19 08:22:13;;;;;;;1.55;0.88;;;;;;;;;;5003995;28;20478;-59
2022/09/19 08:24:38;;;;;;;1.00;0.90;;;;;;;;;;5007017;28;20471;-59
2022/09/19 08:27:04;;;;;;;1.90;1.10;;;;;;;;;;5022826;28;20045;-59
2022/09/19 08:29:32;;;;;;;3.80;1.00;;;;;;;;;;5024374;28;20025;-59
2022/09/19 08:31:59;;;;;;;5.25;0.90;;;;;;;;;;5008890;28;20122;-59
2022/09/19 08:34:25;;;;;;;2.58;0.98;;;;;;;;;;5006818;28;20042;-59
2022/09/19 08:36:53;;;;;;;1.95;1.20;;;;;;;;;;5004180;28;20036;-59
2022/09/19 08:39:18;;;;;;;1.02;0.88;;;;;;;;;;5001644;28;20355;-59
2022/09/19 08:42:07;;;;;;;4.43;1.25;;;;;;;;;;5001411;28;20057;-59
2022/09/19 08:44:39;;;;;;;2.33;1.00;;;;;;;;;;5006384;28;20080;-59
2022/09/19 08:47:09;;;;;;;2.30;1.00;;;;;;;;;;5020640;28;20372;-59
2022/09/19 08:49:43;;;;;;;2.45;1.05;;;;;;;;;;5024198;28;20037;-59
2022/09/19 08:52:27;;;;;;;1.67;1.00;;;;;;;;;;5005089;28;20490;-59
2022/09/19 08:54:54;;;;;;;1.25;0.95;;;;;;;;;;5005517;28;20550;-59
2022/09/19 08:57:26;;;;;;;8.98;1.00;;;;;;;;;;5003336;28;20147;-59
2022/09/19 08:59:56;;;;;;;5.53;1.25;;;;;;;;;;5005764;28;20042;-59
2022/09/19 09:02:37;;;;;;;3.67;1.00;;;;;;;;;;5005899;28;20065;-59
2022/09/19 09:05:04;;;;;;;1.38;0.70;;;;;;;;;;5006916;28;20029;-58
2022/09/19 09:07:38;;;;;;;2.20;0.80;;;;;;;;;;5020690;28;20128;-58
2022/09/19 09:10:25;;;;;;;1.13;1.00;;;;;;;;;;5023944;28;20034;-59
2022/09/19 09:13:05;;;;;;;4.18;1.27;;;;;;;;;;5006283;28;20042;-58
2022/09/19 09:15:50;;;;;;;1.58;1.02;;;;;;;;;;5001919;28;20045;-59
2022/09/19 09:18:34;;;;;;;2.55;1.50;;;;;;;;;;5002965;28;20580;-59
2022/09/19 09:21:03;;;;;;;1.83;1.00;;;;;;;;;;5011868;28;20053;-57
2022/09/19 09:23:35;;;;;;;2.35;1.15;;;;;;;;;;5021914;28;20032;-59
2022/09/19 09:26:09;;;;;;;1.38;0.95;;;;;;;;;;5025530;28;20433;-59
2022/09/19 09:28:59;;;;;;;3.00;1.30;;;;;;;;;;5023735;28;20078;-59
2022/09/19 09:31:28;;;;;;;9.73;1.00;;;;;;;;;;5012527;28;20046;-59
2022/09/19 09:34:01;;;;;;;5.03;0.98;;;;;;;;;;5005818;28;20041;-59
2022/09/19 09:36:33;;;;;;;3.13;1.20;;;;;;;;;;5013161;28;20053;-59
2022/09/19 09:39:05;;;;;;;;;;;;;;;;;;5015880;28;20023;-58
2022/09/19 09:41:47;;;;;;;1.02;0.93;;;;;;;;;;5003983;28;20394;-58
2022/09/19 09:44:13;;;;;;;3.95;1.10;;;;;;;;;;5003045;28;20475;-59
2022/09/19 09:46:53;;;;;;;2.90;1.30;;;;;;;;;;5014905;28;20047;-59
2022/09/19 09:49:22;;;;;;;5.68;1.10;;;;;;;;;;5021879;28;20025;-59
2022/09/19 09:52:04;;;;;;;5.88;1.30;;;;;;;;;;5010530;28;20388;-58
2022/09/19 09:57:37;;;;;;;7.75;1.30;;;;;;;;;;5002318;28;20046;-59
2022/09/19 10:06:15;;;;;;;2.28;1.20;;;;;;;;;;5001873;28;20046;-59
2022/09/19 10:09:05;;;;;;;3.03;1.05;;;;;;;;;;5002415;28;20034;-57
2022/09/19 10:11:40;;;;;;;2.42;1.17;;;;;;;;;;5001057;28;20417;-59
2022/09/19 10:14:19;;;;;;;5.43;1.02;;;;;;;;;;5003124;28;20109;-59
2022/09/19 10:16:47;;;;;;;4.68;1.05;;;;;;;;;;5001529;28;20140;-59
2022/09/19 10:19:36;;;;;;;5.32;1.25;;;;;;;;;;5004578;28;20123;-59
2022/09/19 10:22:03;;;;;;;6.88;1.50;;;;;;;;;;5002805;28;20049;-59
2022/09/19 10:24:45;;;;;;;4.85;1.00;;;;;;;;;;5001835;28;20035;-58
2022/09/19 10:27:15;;;;;;;2.25;1.13;;;;;;;;;;5003226;28;20034;-59
2022/09/19 10:29:59;;;;;;;3.70;1.35;;;;;;;;;;5000469;28;20145;-58
2022/09/19 10:32:37;;;;;;;1.25;1.00;;;;;;;;;;5017867;28;20038;-58
2022/09/19 10:35:34;;;;;;;3.15;1.00;;;;;;;;;;5021173;28;20033;-58
2022/09/19 10:38:13;;;;;;;4.75;1.20;;;;;;;;;;5002361;28;20042;-59
2022/09/19 10:40:59;;;;;;;5.55;1.05;;;;;;;;;;5002477;28;20046;-59
2022/09/19 10:43:39;;;;;;;5.22;1.23;;;;;;;;;;5005639;28;20044;-59
2022/09/19 10:46:06;;;;;;;4.50;1.23;;;;;;;;;;5002261;28;20045;-59
2022/09/19 10:48:37;;;;;;;3.88;1.50;;;;;;;;;;5000633;28;20525;-58
2022/09/19 10:51:13;;;;;;;3.05;1.55;;;;;;;;;;5009974;28;20129;-58
2022/09/19 10:53:45;;;;;;;3.58;1.30;;;;;;;;;;5028081;28;20037;-58
2022/09/19 10:56:22;;;;;;;6.75;1.30;;;;;;;;;;5021030;28;20054;-59
2022/09/19 10:58:52;;;;;;;5.85;1.30;;;;;;;;;;5024980;28;20038;-59
2022/09/19 11:01:21;;;;;;;4.35;1.08;;;;;;;;;;5011266;28;20507;-59
2022/09/19 11:04:02;;;;;;;6.40;1.92;;;;;;;;;;5001271;28;20037;-59
2022/09/19 11:06:29;;;;;;;9.40;2.08;;;;;;;;;;5001568;28;20433;-59
2022/09/19 11:08:55;;;;;;;7.25;2.17;;;;;;;;;;5004420;28;20105;-58
2022/09/19 11:11:22;;;;;;;2.10;1.40;;;;;;;;;;5013018;28;20049;-58
2022/09/19 11:14:22;;;;;;;4.68;1.20;;;;;;;;;;5023223;28;20040;-58
2022/09/19 11:17:04;;;;;;;4.43;1.23;;;;;;;;;;5011689;28;20046;-58
2022/09/19 11:19:46;;;;;;;3.42;1.20;;;;;;;;;;5006212;28;20042;-59
2022/09/19 11:22:32;;;;;;;5.38;1.10;;;;;;;;;;5005278;28;20494;-58
2022/09/19 11:25:17;;;;;;;5.68;1.52;;;;;;;;;;5006866;28;20394;-57
2022/09/19 11:27:51;;;;;;;9.63;1.40;;;;;;;;;;5022648;28;20057;-58
2022/09/19 11:30:24;;;;;;;2.63;1.13;;;;;;;;;;5020937;28;20049;-58
2022/09/19 11:33:15;;;;;;;2.20;1.00;;;;;;;;;;5006347;28;20117;-58
2022/09/19 11:35:48;;;;;;;1.60;1.23;;;;;;;;;;5005148;28;20430;-58
2022/09/19 11:38:32;;;;;;;2.63;0.95;;;;;;;;;;5006048;28;20029;-58
2022/09/19 11:41:19;;;;;;;3.88;1.10;;;;;;;;;;5005730;28;20565;-58
2022/09/19 11:44:00;;;;;;;4.90;1.15;;;;;;;;;;5008217;28;20062;-58
2022/09/19 11:46:49;;;;;;;10.98;1.40;;;;;;;;;;5016265;28;20033;-55
2022/09/19 11:49:50;;;;;;;6.55;1.50;;;;;;;;;;5024238;28;20376;-55
2022/09/19 11:52:41;;;;;;;5.57;1.40;;;;;;;;;;5005761;28;20034;-57
2022/09/19 11:55:31;;;;;;;6.60;1.30;;;;;;;;;;5003659;28;20065;-56
2022/09/19 11:58:07;;;;;;;4.80;1.13;;;;;;;;;;5008366;28;20040;-57
2022/09/19 12:01:05;;;;;;;3.55;1.00;;;;;;;;;;5006589;28;20673;-58
2022/09/19 12:03:59;;;;;;;6.15;1.58;;;;;;;;;;4967927;28;20082;-56
2022/09/19 12:06:48;;;;;;;6.30;1.42;;;;;;;;;;4965897;28;20058;-57
2022/09/19 12:09:44;;;;;;;7.53;1.10;;;;;;;;;;4966225;28;20397;-58
2022/09/19 12:12:21;;;;;;;7.00;1.17;;;;;;;;;;4960010;28;20078;-53
2022/09/19 12:14:58;;;;;;;8.70;1.40;;;;;;;;;;4968455;28;20046;-57
2022/09/19 12:17:32;;;;;;;7.28;1.40;;;;;;;;;;4966287;28;20055;-56
2022/09/19 12:19:57;;;;;;;5.60;1.08;;;;;;;;;;4967448;28;20092;-58
2022/09/19 12:22:31;;;;;;;3.25;1.27;;;;;;;;;;4966236;28;20031;-58
2022/09/19 12:25:24;;;;;;;7.25;1.58;;;;;;;;;;4967112;28;20031;-57
2022/09/19 12:28:10;;;;;;;2.78;1.25;;;;;;;;;;4967072;28;20065;-57
2022/09/19 12:30:44;;;;;;;3.90;1.25;;;;;;;;;;4965047;28;20546;-58
2022/09/19 12:33:24;;;;;;;6.03;1.20;;;;;;;;;;4966103;28;20035;-57
2022/09/19 12:36:06;;;;;;;2.75;1.48;;;;;;;;;;4966163;28;20050;-57
2022/09/19 12:38:58;;;;;;;5.30;1.30;;;;;;;;;;4965430;28;20030;-57
2022/09/19 12:41:41;;;;;;;;;;;;;;;;;;4998200;28;20602;-57
2022/09/19 12:44:19;;;;;;;7.25;1.13;;;;;;;;;;5006213;28;19951;-57
2022/09/19 12:47:04;;;;;;;6.75;1.20;;;;;;;;;;5010374;28;20091;-58
2022/09/19 12:50:03;;;;;;;4.50;1.05;;;;;;;;;;5012020;28;20029;-56
2022/09/19 12:52:35;;;;;;;2.85;1.40;;;;;;;;;;5001869;28;20066;-57
2022/09/19 12:55:15;;;;;;;2.20;1.10;;;;;;;;;;5004128;28;20076;-54
2022/09/19 12:57:43;;;;;;;1.67;0.93;;;;;;;;;;5003036;28;20132;-56
2022/09/19 13:00:12;;;;;;;2.25;1.08;;;;;;;;;;5006513;28;20601;-58
2022/09/19 13:02:45;;;;;;;6.75;1.10;;;;;;;;;;5001586;28;20034;-55
2022/09/19 13:05:22;;;;;;;5.07;1.25;;;;;;;;;;5004307;28;20120;-52
2022/09/19 13:07:51;;;;;;;1.48;1.08;;;;;;;;;;5000761;28;20077;-57
2022/09/19 13:10:26;;;;;;;2.15;0.85;;;;;;;;;;5004979;28;20034;-57
2022/09/19 13:13:01;;;;;;;3.65;1.30;;;;;;;;;;5005882;28;20023;-56
2022/09/19 13:15:30;;;;;;;4.63;1.30;;;;;;;;;;5003449;28;20043;-58
2022/09/19 13:23:31;;;;;;;3.88;1.40;;;;;;;;;;5000322;28;20041;-57
2022/09/19 13:26:00;;;;;;;4.65;1.35;;;;;;;;;;5002618;28;20034;-58
2022/09/19 13:28:32;;;;;;;2.75;1.02;;;;;;;;;;4999868;28;20061;-58
2022/09/19 13:31:04;;;;;;;9.32;1.13;;;;;;;;;;5001407;28;20049;-55
2022/09/19 13:33:49;;;;;;;1.52;1.13;;;;;;;;;;4998766;28;20037;-57
2022/09/19 13:36:36;;;;;;;5.10;1.20;;;;;;;;;;4998836;28;20034;-57
2022/09/19 13:39:04;;;;;;;8.20;1.85;;;;;;;;;;5000725;28;20097;-56
2022/09/19 13:41:39;;;;;;;3.50;1.35;;;;;;;;;;5002208;28;20541;-57
2022/09/19 13:44:11;;;;;;;4.90;1.20;;;;;;;;;;5004952;28;20037;-57
2022/09/19 13:47:07;;;;;;;5.03;1.20;;;;;;;;;;5002582;28;20407;-55
2022/09/19 13:49:49;;;;;;;4.18;0.93;;;;;;;;;;5002827;28;20056;-56
2022/09/19 13:52:22;;;;;;;6.82;1.55;;;;;;;;;;5004774;28;20034;-58
2022/09/19 13:54:50;;;;;;;7.22;1.40;;;;;;;;;;5000081;28;20053;-58
2022/09/19 13:57:23;;;;;;;1.20;1.05;;;;;;;;;;5002887;28;20612;-57
2022/09/19 14:00:13;;;;;;;5.50;1.15;;;;;;;;;;5005244;28;20129;-58
2022/09/19 14:02:40;;;;;;;7.75;1.30;;;;;;;;;;5002139;28;20050;-58
2022/09/19 14:05:18;;;;;;;8.57;0.90;;;;;;;;;;5006725;28;20490;-58
2022/09/19 14:07:52;;;;;;;5.07;1.02;;;;;;;;;;5003883;28;20127;-57
2022/09/19 14:10:29;;;;;;;2.88;1.02;;;;;;;;;;4998706;28;20037;-57
2022/09/19 14:13:00;;;;;;;2.35;1.10;;;;;;;;;;5001400;28;20033;-57
2022/09/19 14:15:28;;;;;;;5.35;1.20;;;;;;;;;;5003748;28;20373;-58
2022/09/19 14:18:12;;;;;;;3.35;1.23;;;;;;;;;;5000312;28;20030;-56
2022/09/19 14:21:01;;;;;;;2.42;1.30;;;;;;;;;;5006907;28;20441;-58
2022/09/19 14:23:29;;;;;;;5.93;1.35;;;;;;;;;;5019430;28;20037;-58
2022/09/19 14:26:00;;;;;;;1.80;1.70;;;;;;;;;;5013718;28;20129;-58
2022/09/19 14:28:54;;;;;;;9.15;1.42;;;;;;;;;;4999030;28;20494;-58
2022/09/19 14:31:42;;;;;;;7.88;1.10;;;;;;;;;;5002629;28;20038;-58
2022/09/19 14:34:18;;;;;;;5.18;1.25;;;;;;;;;;5001492;28;20037;-57
2022/09/19 14:37:46;;;;;;;2.10;1.20;;;;;;;;;;5014147;28;20050;-58
2022/09/19 14:40:20;;;;;;;5.57;1.20;;;;;;;;;;4928040;29;20453;-57
2022/09/19 14:43:23;;;;;;;6.57;1.60;;;;;;;;;;4947972;28;20066;-59
2022/09/19 14:46:19;;;;;;;1.55;1.17;;;;;;;;;;4947525;28;20043;-58
2022/09/19 14:48:54;;;;;;;3.30;1.15;;;;;;;;;;4941792;28;20137;-57
2022/09/19 14:52:00;;;;;;;6.07;1.00;;;;;;;;;;4934301;29;20067;-56
2022/09/19 14:54:40;;;;;;;2.47;1.45;;;;;;;;;;4950217;28;20047;-58
2022/09/19 14:57:20;;;;;;;2.65;1.10;;;;;;;;;;4948579;28;20047;-58
2022/09/19 14:59:47;;;;;;;5.15;1.17;;;;;;;;;;4949604;28;20051;-59
2022/09/19 15:02:28;;;;;;;3.10;1.00;;;;;;;;;;4949896;28;20078;-58
2022/09/19 15:05:30;;;;;;;4.13;0.90;;;;;;;;;;4948473;28;20503;-58
2022/09/19 15:07:56;;;;;;;3.50;1.05;;;;;;;;;;4948978;28;20110;-57
2022/09/19 15:10:37;;;;;;;3.30;1.20;;;;;;;;;;4950468;28;20043;-58
2022/09/19 15:13:18;;;;;;;3.90;1.48;;;;;;;;;;4949936;28;20555;-58
2022/09/19 15:15:52;;;;;;;8.50;1.20;;;;;;;;;;4994309;28;20195;-58
2022/09/19 15:18:34;;;;;;;3.30;1.20;;;;;;;;;;5025965;28;20116;-58
2022/09/19 15:21:03;;;;;;;7.13;1.30;;;;;;;;;;5017080;28;20054;-59
2022/09/19 15:23:32;;;;;;;2.38;1.00;;;;;;;;;;5007749;28;20033;-56
2022/09/19 15:26:04;;;;;;;3.85;1.25;;;;;;;;;;5009444;28;20129;-58
2022/09/19 15:28:37;;;;;;;3.35;0.95;;;;;;;;;;5018268;28;20034;-58
2022/09/19 15:31:24;;;;;;;7.70;1.20;;;;;;;;;;5015917;28;20046;-58
2022/09/19 15:34:01;;;;;;;1.58;1.27;;;;;;;;;;5015187;28;20040;-58
2022/09/19 15:36:28;;;;;;;5.15;1.15;;;;;;;;;;5013231;28;20041;-58
2022/09/19 15:38:57;;;;;;;1.48;1.10;;;;;;;;;;5007513;28;20479;-58
2022/09/19 15:41:28;;;;;;;4.40;1.33;;;;;;;;;;5007776;28;20038;-58
2022/09/19 15:43:56;;;;;;;6.85;1.33;;;;;;;;;;5006066;28;20475;-58